Time;durP1;ratioP1;P1;durP2;ratioP2;P2;SDS_P1;SDS_P2;PMS_P1;PMS_P2;Temp;Humidity;BMP_temperature;BMP_pressure;BME280_temperature;BME280_humidity;BME280_pressure;Samples;Min_cycle;Max_cycle;Signal;HPM_P1;HPM_P2
2022/01/31 00:00:30;;;;;;;;;;;4.70;97.00;;;;;;5062905;28;19912;-69
2022/01/31 00:02:55;;;;;;;;;;;4.70;97.00;;;;;;5063163;28;20003;-69
2022/01/31 00:05:21;;;;;;;;;;;4.70;97.00;;;;;;5063665;28;19927;-69
2022/01/31 00:07:46;;;;;;;;;;;4.70;96.90;;;;;;5071917;28;19947;-69
2022/01/31 00:10:13;;;;;;;;;;;4.70;97.00;;;;;;5060724;28;20332;-69
2022/01/31 00:12:50;;;;;;;;;;;4.70;97.00;;;;;;5064453;28;20501;-69
2022/01/31 00:15:16;;;;;;;;;;;4.70;97.00;;;;;;5061379;28;19978;-69
2022/01/31 00:17:42;;;;;;;;;;;4.70;97.00;;;;;;5066979;28;19917;-69
2022/01/31 00:20:07;;;;;;;;;;;4.60;96.90;;;;;;5043178;28;19961;-69
2022/01/31 00:22:33;;;;;;;;;;;4.70;96.80;;;;;;5066262;28;20625;-69
2022/01/31 00:24:58;;;;;;;;;;;4.70;96.70;;;;;;5061941;28;19959;-69
2022/01/31 00:27:24;;;;;;;;;;;4.60;96.90;;;;;;5057676;28;19927;-69
2022/01/31 00:29:49;;;;;;;;;;;4.60;96.80;;;;;;5065785;28;19986;-69
2022/01/31 00:32:15;;;;;;;;;;;4.60;96.60;;;;;;5063934;28;19920;-69
2022/01/31 00:34:40;;;;;;;;;;;4.60;96.50;;;;;;5058512;28;19951;-69
2022/01/31 00:37:06;;;;;;;;;;;4.70;96.90;;;;;;5065727;28;19912;-69
2022/01/31 00:39:35;;;;;;;;;;;4.60;96.60;;;;;;5065890;28;19917;-69
2022/01/31 00:42:02;;;;;;;;;;;4.60;96.80;;;;;;5064652;28;19912;-69
2022/01/31 00:44:29;;;;;;;;;;;4.60;96.80;;;;;;5067695;28;19919;-69
2022/01/31 00:46:59;;;;;;;;;;;4.60;96.80;;;;;;5048207;28;20011;-69
2022/01/31 00:51:57;;;;;;;;;;;4.60;96.70;;;;;;5064260;28;19916;-69
2022/01/31 00:54:22;;;;;;;;;;;4.60;96.80;;;;;;5065635;28;19950;-69
2022/01/31 00:56:51;;;;;;;;;;;4.60;96.50;;;;;;5063319;28;19909;-69
2022/01/31 00:59:17;;;;;;;;;;;4.60;96.70;;;;;;5064518;28;19916;-69
2022/01/31 01:01:42;;;;;;;;;;;4.60;96.80;;;;;;5065592;28;19912;-69
2022/01/31 01:04:08;;;;;;;;;;;4.60;96.70;;;;;;5055712;28;20634;-69
2022/01/31 01:06:33;;;;;;;;;;;4.60;96.70;;;;;;5062249;28;19921;-69
2022/01/31 01:08:59;;;;;;;;;;;4.60;96.80;;;;;;5069639;28;20319;-69
2022/01/31 01:11:24;;;;;;;;;;;4.60;96.70;;;;;;5048969;28;19939;-69
2022/01/31 01:13:50;;;;;;;;;;;4.60;96.50;;;;;;5065494;28;19913;-69
2022/01/31 01:16:15;;;;;;;;;;;4.60;96.80;;;;;;5044087;28;20007;-69
2022/01/31 01:18:41;;;;;;;;;;;4.60;96.80;;;;;;5065056;28;19916;-69
2022/01/31 01:21:06;;;;;;;;;;;4.60;96.60;;;;;;5068911;28;19967;-69
2022/01/31 01:23:32;;;;;;;;;;;4.60;96.70;;;;;;5062814;28;19917;-69
2022/01/31 01:25:57;;;;;;;;;;;4.60;96.70;;;;;;5065985;28;19974;-69
2022/01/31 01:28:25;;;;;;;;;;;4.60;96.70;;;;;;5046633;28;20428;-69
2022/01/31 01:30:50;;;;;;;;;;;4.60;96.70;;;;;;5074867;28;19920;-70
2022/01/31 01:33:21;;;;;;;;;;;4.60;96.80;;;;;;5061512;28;20380;-69
2022/01/31 01:35:49;;;;;;;;;;;4.60;96.80;;;;;;5068567;28;19917;-69
2022/01/31 01:38:17;;;;;;;;;;;4.60;96.70;;;;;;5068127;28;19962;-69
2022/01/31 01:40:43;;;;;;;;;;;4.60;96.50;;;;;;5059748;28;20297;-69
2022/01/31 01:43:09;;;;;;;;;;;4.60;96.70;;;;;;5059439;28;20014;-69
2022/01/31 01:45:34;;;;;;;;;;;4.60;96.70;;;;;;5065082;28;20003;-70
2022/01/31 01:48:00;;;;;;;;;;;4.60;96.70;;;;;;5054203;28;19924;-69
2022/01/31 01:50:25;;;;;;;;;;;4.70;96.70;;;;;;5062896;28;19916;-69
2022/01/31 01:52:51;;;;;;;;;;;4.60;96.60;;;;;;5055067;28;19912;-69
2022/01/31 01:55:17;;;;;;;;;;;4.60;96.70;;;;;;5064506;28;19916;-69
2022/01/31 01:57:42;;;;;;;;;;;4.60;96.80;;;;;;5070065;28;20567;-69
2022/01/31 02:00:15;;;;;;;;;;;4.70;96.80;;;;;;5067203;28;19931;-68
2022/01/31 02:02:42;;;;;;;;;;;4.60;96.70;;;;;;5054995;28;19925;-69
2022/01/31 02:05:07;;;;;;;;;;;4.60;96.80;;;;;;5063726;28;19920;-69
2022/01/31 02:07:34;;;;;;;;;;;4.60;96.60;;;;;;5060782;28;19915;-69
2022/01/31 02:10:04;;;;;;;;;;;4.60;96.70;;;;;;5049767;28;19942;-69
2022/01/31 02:12:38;;;;;;;;;;;4.60;96.80;;;;;;5068315;28;19912;-69
2022/01/31 02:15:04;;;;;;;;;;;4.60;96.80;;;;;;5050202;28;20045;-69
2022/01/31 02:17:30;;;;;;;;;;;4.60;96.80;;;;;;5064569;28;19939;-69
2022/01/31 02:19:55;;;;;;;;;;;4.70;96.80;;;;;;5062513;28;20385;-69
2022/01/31 02:22:21;;;;;;;;;;;4.60;96.70;;;;;;5067266;28;19917;-69
2022/01/31 02:24:46;;;;;;;;;;;4.60;96.80;;;;;;5065554;28;20753;-69
2022/01/31 02:27:12;;;;;;;;;;;4.60;96.70;;;;;;5063159;28;19912;-69
2022/01/31 02:29:38;;;;;;;;;;;4.60;96.60;;;;;;5065576;28;19973;-69
2022/01/31 02:32:03;;;;;;;;;;;4.60;96.80;;;;;;5065728;28;19920;-69
2022/01/31 02:34:29;;;;;;;;;;;4.60;97.00;;;;;;5058766;28;19916;-69
2022/01/31 02:36:54;;;;;;;;;;;4.60;96.90;;;;;;5047873;28;19912;-69
2022/01/31 02:39:20;;;;;;;;;;;4.60;96.80;;;;;;5071322;28;19912;-68
2022/01/31 02:41:46;;;;;;;;;;;4.60;96.80;;;;;;5063308;28;19917;-69
2022/01/31 02:44:15;;;;;;;;;;;4.60;96.70;;;;;;5067108;28;20552;-69
2022/01/31 02:46:48;;;;;;;;;;;4.60;96.80;;;;;;5061926;28;19916;-69
2022/01/31 02:49:14;;;;;;;;;;;4.60;96.80;;;;;;5068634;28;19912;-69
2022/01/31 02:51:45;;;;;;;;;;;4.60;96.90;;;;;;5061442;28;19935;-69
2022/01/31 02:54:11;;;;;;;;;;;4.60;96.90;;;;;;5048234;28;20279;-69
2022/01/31 02:56:40;;;;;;;;;;;4.60;96.80;;;;;;5062877;28;19916;-69
2022/01/31 02:59:06;;;;;;;;;;;4.60;96.90;;;;;;5064764;28;20428;-69
2022/01/31 03:01:33;;;;;;;;;;;4.60;97.00;;;;;;5046741;28;19912;-69
2022/01/31 03:03:59;;;;;;;;;;;4.60;97.00;;;;;;5063579;28;19916;-69
2022/01/31 03:06:24;;;;;;;;;;;4.60;97.00;;;;;;5064181;28;20259;-69
2022/01/31 03:08:50;;;;;;;;;;;4.60;97.00;;;;;;5064082;28;19952;-69
2022/01/31 03:11:15;;;;;;;;;;;4.60;97.00;;;;;;5060287;28;19957;-69
2022/01/31 03:13:41;;;;;;;;;;;4.60;96.90;;;;;;5064657;28;21466;-69
2022/01/31 03:16:06;;;;;;;;;;;4.60;97.00;;;;;;5067034;28;19916;-69
2022/01/31 03:18:32;;;;;;;;;;;4.60;96.90;;;;;;5062721;28;20498;-69
2022/01/31 03:20:57;;;;;;;;;;;4.60;97.00;;;;;;5062771;28;19921;-69
2022/01/31 03:23:23;;;;;;;;;;;4.60;97.00;;;;;;5064538;28;19912;-69
2022/01/31 03:25:48;;;;;;;;;;;4.60;97.00;;;;;;5043707;28;19913;-69
2022/01/31 03:28:14;;;;;;;;;;;4.60;97.00;;;;;;5059831;28;19974;-69
2022/01/31 03:30:39;;;;;;;;;;;4.60;97.30;;;;;;5062429;28;19923;-69
2022/01/31 03:33:05;;;;;;;;;;;4.50;97.00;;;;;;5067917;28;19962;-69
2022/01/31 03:35:30;;;;;;;;;;;4.60;97.10;;;;;;5060495;28;19912;-69
2022/01/31 03:37:56;;;;;;;;;;;4.50;97.00;;;;;;5059359;28;19966;-69
2022/01/31 03:40:21;;;;;;;;;;;4.50;97.10;;;;;;5060654;28;20353;-69
2022/01/31 03:42:47;;;;;;;;;;;4.50;97.10;;;;;;5060643;28;20584;-69
2022/01/31 03:45:13;;;;;;;;;;;4.50;97.10;;;;;;5063136;28;19916;-69
2022/01/31 03:47:44;;;;;;;;;;;4.50;97.10;;;;;;5065356;28;19917;-69
2022/01/31 03:50:13;;;;;;;;;;;4.60;97.10;;;;;;5046048;28;20386;-69
2022/01/31 03:52:39;;;;;;;;;;;4.50;97.10;;;;;;5059799;28;20513;-69
2022/01/31 03:55:05;;;;;;;;;;;4.50;97.10;;;;;;5064864;28;19920;-69
2022/01/31 03:57:31;;;;;;;;;;;4.50;97.20;;;;;;5060200;28;20314;-69
2022/01/31 03:59:57;;;;;;;;;;;4.50;97.10;;;;;;5065417;28;20548;-69
2022/01/31 04:02:22;;;;;;;;;;;4.50;97.10;;;;;;5059909;28;19924;-69
2022/01/31 04:04:48;;;;;;;;;;;4.50;97.20;;;;;;5064821;28;19913;-69
2022/01/31 04:07:13;;;;;;;;;;;4.50;97.20;;;;;;5068485;28;19912;-69
2022/01/31 04:09:38;;;;;;;;;;;4.50;97.10;;;;;;5064236;28;20068;-69
2022/01/31 04:12:04;;;;;;;;;;;4.50;97.20;;;;;;5064972;28;19921;-69
2022/01/31 04:14:30;;;;;;;;;;;4.40;97.20;;;;;;5063525;28;19916;-69
2022/01/31 04:16:56;;;;;;;;;;;4.50;97.50;;;;;;5063036;28;19916;-69
2022/01/31 04:19:23;;;;;;;;;;;4.50;97.30;;;;;;5058768;28;19927;-69
2022/01/31 04:21:48;;;;;;;;;;;4.50;97.20;;;;;;5048458;28;19987;-69
2022/01/31 04:24:19;;;;;;;;;;;4.40;97.30;;;;;;5069986;28;20031;-69
2022/01/31 04:26:55;;;;;;;;;;;4.40;97.30;;;;;;5080677;28;19939;-69
2022/01/31 04:29:21;;;;;;;;;;;4.50;97.30;;;;;;5058910;28;19945;-69
2022/01/31 04:31:49;;;;;;;;;;;4.50;97.30;;;;;;5044899;28;20016;-69
2022/01/31 04:34:15;;;;;;;;;;;4.50;97.40;;;;;;5072671;28;19993;-69
2022/01/31 04:36:40;;;;;;;;;;;4.50;97.30;;;;;;5057037;28;19985;-69
2022/01/31 04:39:06;;;;;;;;;;;4.50;97.40;;;;;;5062080;28;24517;-69
2022/01/31 04:41:32;;;;;;;;;;;4.50;97.40;;;;;;5063567;28;19932;-69
2022/01/31 04:44:03;;;;;;;;;;;4.50;97.40;;;;;;5063359;28;19916;-69
2022/01/31 04:46:30;;;;;;;;;;;4.50;97.40;;;;;;5061617;28;19966;-69
2022/01/31 04:48:55;;;;;;;;;;;4.50;97.50;;;;;;5058630;28;19920;-69
2022/01/31 04:51:21;;;;;;;;;;;4.50;97.50;;;;;;5055596;28;19920;-69
2022/01/31 04:53:46;;;;;;;;;;;4.50;97.50;;;;;;5061698;28;20415;-69
2022/01/31 04:56:12;;;;;;;;;;;4.50;97.50;;;;;;5064176;28;19916;-69
2022/01/31 04:58:39;;;;;;;;;;;4.50;97.50;;;;;;5047602;28;19977;-69
2022/01/31 05:01:05;;;;;;;;;;;4.50;97.60;;;;;;5055713;28;19923;-69
2022/01/31 05:03:31;;;;;;;;;;;4.50;97.60;;;;;;5060540;28;19913;-69
2022/01/31 05:05:56;;;;;;;;;;;4.50;97.60;;;;;;5046064;28;19917;-69
2022/01/31 05:08:26;;;;;;;;;;;4.50;97.70;;;;;;5059010;28;19916;-69
2022/01/31 05:10:51;;;;;;;;;;;4.50;97.80;;;;;;5064146;28;19917;-69
2022/01/31 05:13:17;;;;;;;;;;;4.50;97.80;;;;;;5065752;28;20507;-69
2022/01/31 05:15:44;;;;;;;;;;;4.50;97.90;;;;;;5057205;28;20010;-69
2022/01/31 05:18:10;;;;;;;;;;;4.50;97.90;;;;;;5065291;28;19916;-69
2022/01/31 05:20:35;;;;;;;;;;;4.50;97.90;;;;;;5067570;28;19912;-69
2022/01/31 05:23:01;;;;;;;;;;;4.50;97.90;;;;;;5071784;28;20049;-69
2022/01/31 05:25:27;;;;;;;;;;;4.50;97.90;;;;;;5049468;28;19915;-69
2022/01/31 05:27:52;;;;;;;;;;;4.60;97.90;;;;;;5065563;28;19927;-69
2022/01/31 05:30:18;;;;;;;;;;;4.50;97.90;;;;;;5065100;28;19921;-69
2022/01/31 05:32:43;;;;;;;;;;;4.60;97.90;;;;;;5069019;28;19927;-69
2022/01/31 05:35:09;;;;;;;;;;;4.50;98.00;;;;;;5066678;28;19920;-69
2022/01/31 05:37:35;;;;;;;;;;;4.60;98.30;;;;;;5073206;28;19917;-69
2022/01/31 05:40:02;;;;;;;;;;;4.60;98.10;;;;;;5065485;28;20003;-69
2022/01/31 05:42:27;;;;;;;;;;;4.60;98.00;;;;;;5067432;28;19912;-69
2022/01/31 05:44:53;;;;;;;;;;;4.60;98.10;;;;;;5064186;28;19927;-69
2022/01/31 05:47:18;;;;;;;;;;;4.60;98.00;;;;;;5071567;28;19920;-69
2022/01/31 05:49:44;;;;;;;;;;;4.60;98.10;;;;;;5060619;28;19928;-69
2022/01/31 05:52:09;;;;;;;;;;;4.60;98.10;;;;;;5070864;28;20242;-69
2022/01/31 05:54:36;;;;;;;;;;;4.60;98.10;;;;;;5066759;28;19955;-69
2022/01/31 05:57:03;;;;;;;;;;;4.70;98.10;;;;;;5067657;28;19908;-70
2022/01/31 05:59:28;;;;;;;;;;;4.60;98.00;;;;;;5065887;28;19917;-69
2022/01/31 06:01:54;;;;;;;;;;;4.70;98.10;;;;;;5067229;28;20412;-69
2022/01/31 06:04:19;;;;;;;;;;;4.60;98.10;;;;;;5069685;28;19916;-69
2022/01/31 06:06:45;;;;;;;;;;;4.70;98.10;;;;;;5063520;28;19912;-69
2022/01/31 06:09:10;;;;;;;;;;;4.60;98.20;;;;;;5069347;28;19913;-69
2022/01/31 06:11:36;;;;;;;;;;;4.60;98.20;;;;;;5065334;28;19923;-69
2022/01/31 06:14:02;;;;;;;;;;;4.70;98.10;;;;;;5059511;28;19912;-69
2022/01/31 06:16:28;;;;;;;;;;;4.70;98.20;;;;;;5047250;28;20567;-69
2022/01/31 06:18:54;;;;;;;;;;;4.70;98.20;;;;;;5063749;28;19927;-69
2022/01/31 06:21:20;;;;;;;;;;;4.70;98.20;;;;;;5063880;28;19971;-69
2022/01/31 06:23:45;;;;;;;;;;;4.70;98.20;;;;;;5063551;28;19916;-69
2022/01/31 06:26:11;;;;;;;;;;;4.70;98.20;;;;;;5060480;28;19916;-69
2022/01/31 06:28:36;;;;;;;;;;;4.70;98.20;;;;;;5064352;28;20403;-69
2022/01/31 06:31:02;;;;;;;;;;;4.70;98.20;;;;;;5063787;28;20439;-69
2022/01/31 06:33:27;;;;;;;;;;;4.70;98.20;;;;;;5066147;28;19912;-69
2022/01/31 06:35:53;;;;;;;;;;;4.70;98.20;;;;;;5058712;28;19919;-69
2022/01/31 06:38:18;;;;;;;;;;;4.70;98.20;;;;;;5066160;28;19934;-69
2022/01/31 06:40:44;;;;;;;;;;;4.70;98.50;;;;;;5073708;28;19917;-69
2022/01/31 06:43:09;;;;;;;;;;;4.70;98.20;;;;;;5064002;28;20320;-69
2022/01/31 06:45:35;;;;;;;;;;;4.70;98.30;;;;;;5081077;28;19913;-69
2022/01/31 06:48:00;;;;;;;;;;;4.70;98.20;;;;;;5062039;28;19920;-69
2022/01/31 06:50:26;;;;;;;;;;;4.70;98.20;;;;;;5029539;28;20557;-69
2022/01/31 06:52:55;;;;;;;;;;;4.70;98.20;;;;;;5063040;28;19919;-69
2022/01/31 06:55:21;;;;;;;;;;;4.70;98.20;;;;;;5067106;28;19979;-69
2022/01/31 06:57:47;;;;;;;;;;;4.70;98.20;;;;;;5045835;28;19916;-69
2022/01/31 07:00:13;;;;;;;;;;;4.70;98.30;;;;;;5046450;28;19982;-69
2022/01/31 07:02:39;;;;;;;;;;;4.70;98.30;;;;;;5064379;28;19939;-69
2022/01/31 07:05:05;;;;;;;;;;;4.80;98.30;;;;;;5066166;28;19921;-68
2022/01/31 07:07:30;;;;;;;;;;;4.70;98.30;;;;;;5069265;28;19931;-69
2022/01/31 07:09:56;;;;;;;;;;;4.80;98.40;;;;;;5061848;28;19995;-69
2022/01/31 07:12:31;;;;;;;;;;;4.80;98.30;;;;;;5062598;28;19956;-70
2022/01/31 07:14:57;;;;;;;;;;;4.80;98.30;;;;;;5059781;28;19915;-68
2022/01/31 07:17:22;;;;;;;;;;;4.70;98.30;;;;;;5070940;28;19917;-69
2022/01/31 07:19:48;;;;;;;;;;;4.70;98.40;;;;;;5064261;28;19924;-69
2022/01/31 07:22:14;;;;;;;;;;;4.70;98.40;;;;;;5048264;28;20038;-69
2022/01/31 07:25:34;;;;;;;;;;;4.70;98.40;;;;;;5046648;28;19923;-69
2022/01/31 07:27:29;;;;;;;;;;;4.70;98.40;;;;;;5055685;28;19917;-69
2022/01/31 07:29:55;;;;;;;;;;;4.70;98.40;;;;;;5063443;28;20039;-69
2022/01/31 07:32:21;;;;;;;;;;;4.70;98.40;;;;;;5063968;28;19923;-69
2022/01/31 07:34:46;;;;;;;;;;;4.70;98.40;;;;;;5062600;28;19969;-69
2022/01/31 07:37:12;;;;;;;;;;;4.70;98.30;;;;;;5060273;28;19944;-69
2022/01/31 07:39:41;;;;;;;;;;;4.70;98.30;;;;;;5061496;28;20473;-69
2022/01/31 07:42:07;;;;;;;;;;;4.70;98.30;;;;;;5067137;28;19912;-69
2022/01/31 07:44:32;;;;;;;;;;;4.70;98.30;;;;;;5059862;28;19939;-69
2022/01/31 07:46:58;;;;;;;;;;;4.70;98.20;;;;;;5060378;28;19924;-69
2022/01/31 07:49:23;;;;;;;;;;;4.70;98.30;;;;;;5066592;28;19955;-69
2022/01/31 07:51:50;;;;;;;;;;;4.70;98.20;;;;;;5058179;28;20380;-69
2022/01/31 07:54:15;;;;;;;;;;;4.70;98.30;;;;;;5056888;28;20538;-69
2022/01/31 07:56:41;;;;;;;;;;;4.70;98.20;;;;;;5061619;28;20061;-69
2022/01/31 07:59:07;;;;;;;;;;;4.70;98.20;;;;;;5065002;28;19920;-69
2022/01/31 08:01:32;;;;;;;;;;;4.70;98.50;;;;;;5063511;28;20405;-69
2022/01/31 08:03:57;;;;;;;;;;;4.70;98.20;;;;;;5058374;28;20504;-69
2022/01/31 08:06:23;;;;;;;;;;;4.70;98.30;;;;;;5061803;28;19917;-70
2022/01/31 08:08:50;;;;;;;;;;;4.70;98.30;;;;;;5063318;28;19917;-69
2022/01/31 08:11:16;;;;;;;;;;;4.70;98.30;;;;;;5060262;28;19920;-69
2022/01/31 08:13:41;;;;;;;;;;;4.70;98.30;;;;;;5056892;28;19913;-69
2022/01/31 08:18:33;;;;;;;;;;;4.70;98.30;;;;;;5060750;28;19920;-70
2022/01/31 08:20:58;;;;;;;;;;;4.70;98.20;;;;;;5062702;28;19912;-69
2022/01/31 08:23:24;;;;;;;;;;;4.70;98.30;;;;;;5060427;28;20636;-69
2022/01/31 08:25:50;;;;;;;;;;;4.70;98.30;;;;;;5067956;28;19921;-69
2022/01/31 08:28:17;;;;;;;;;;;4.70;98.30;;;;;;5060147;28;19917;-69
2022/01/31 08:30:56;;;;;;;;;;;4.70;98.30;;;;;;5059299;28;19927;-70
2022/01/31 08:33:47;;;;;;;;;;;4.70;98.30;;;;;;5061423;28;19916;-69
2022/01/31 08:36:11;;;;;;;;;;;4.70;98.30;;;;;;5058835;28;19924;-69
2022/01/31 08:38:39;;;;;;;;;;;4.70;98.30;;;;;;5059897;28;20369;-69
2022/01/31 08:41:05;;;;;;;;;;;4.70;98.30;;;;;;5069383;28;19974;-70
2022/01/31 08:43:32;;;;;;;;;;;4.70;98.30;;;;;;5059522;28;21831;-69
2022/01/31 08:45:57;;;;;;;;;;;4.70;98.30;;;;;;5063314;28;20358;-68
2022/01/31 08:48:24;;;;;;;;;;;4.70;98.30;;;;;;5061087;28;19921;-69
2022/01/31 08:50:50;;;;;;;;;;;4.70;98.30;;;;;;5071107;28;19920;-69
2022/01/31 08:53:15;;;;;;;;;;;4.70;98.30;;;;;;5065217;28;19916;-69
2022/01/31 08:55:46;;;;;;;;;;;4.70;98.30;;;;;;5063826;28;20027;-69
2022/01/31 08:58:12;;;;;;;;;;;4.70;98.30;;;;;;5064123;28;19927;-69
2022/01/31 09:00:37;;;;;;;;;;;4.70;98.40;;;;;;5053464;28;19916;-69
2022/01/31 09:03:22;;;;;;;;;;;4.70;98.40;;;;;;5063601;28;20013;-69
2022/01/31 09:05:47;;;;;;;;;;;4.70;98.40;;;;;;5061451;28;20029;-68
2022/01/31 09:08:13;;;;;;;;;;;4.70;98.40;;;;;;5072029;28;19917;-69
2022/01/31 09:10:39;;;;;;;;;;;4.70;98.40;;;;;;5063582;28;19951;-69
2022/01/31 09:13:05;;;;;;;;;;;4.70;98.40;;;;;;5067765;28;20622;-69
2022/01/31 09:15:31;;;;;;;;;;;4.70;98.40;;;;;;5062208;28;19916;-69
2022/01/31 09:17:56;;;;;;;;;;;4.70;98.40;;;;;;5055491;28;19920;-69
2022/01/31 09:20:22;;;;;;;;;;;4.80;98.40;;;;;;5064477;28;19920;-69
2022/01/31 09:22:47;;;;;;;;;;;4.70;98.40;;;;;;5069631;28;19920;-69
2022/01/31 09:25:14;;;;;;;;;;;4.70;98.40;;;;;;5064455;28;20389;-69
2022/01/31 09:27:40;;;;;;;;;;;4.70;98.40;;;;;;5066836;28;19947;-69
2022/01/31 09:30:07;;;;;;;;;;;4.70;98.40;;;;;;5061377;28;19924;-69
2022/01/31 09:32:32;;;;;;;;;;;4.70;98.40;;;;;;5072724;28;19916;-69
2022/01/31 09:34:58;;;;;;;;;;;4.80;98.50;;;;;;5065556;28;19935;-69
2022/01/31 09:37:24;;;;;;;;;;;4.70;98.50;;;;;;5062190;28;20800;-69
2022/01/31 09:39:50;;;;;;;;;;;4.70;98.50;;;;;;5062777;28;20003;-69
2022/01/31 09:42:25;;;;;;;;;;;4.80;98.50;;;;;;5067756;28;20003;-69
2022/01/31 09:48:31;;;;;;;;;;;4.80;98.60;;;;;;5066927;28;19928;-69
2022/01/31 09:50:09;;;;;;;;;;;4.70;98.60;;;;;;5065869;28;19932;-69
2022/01/31 09:52:46;;;;;;;;;;;4.70;98.60;;;;;;5064698;28;19982;-69
2022/01/31 09:55:12;;;;;;;;;;;4.70;98.60;;;;;;5067694;28;19921;-69
2022/01/31 09:57:38;;;;;;;;;;;4.70;98.60;;;;;;5062689;28;19958;-69
2022/01/31 10:00:04;;;;;;;;;;;4.70;98.90;;;;;;5067819;28;19912;-70
2022/01/31 10:02:30;;;;;;;;;;;4.70;98.70;;;;;;5063152;28;19912;-68
2022/01/31 10:04:55;;;;;;;;;;;4.80;98.70;;;;;;5059284;28;19924;-69
2022/01/31 10:07:21;;;;;;;;;;;4.80;98.80;;;;;;5046657;28;19923;-68
2022/01/31 10:09:48;;;;;;;;;;;4.80;98.80;;;;;;5074394;28;20006;-69
2022/01/31 10:12:26;;;;;;;;;;;4.80;98.70;;;;;;5063321;28;19939;-69
2022/01/31 10:17:37;;;;;;;;;;;4.80;98.70;;;;;;5062155;28;19928;-69
2022/01/31 10:20:05;;;;;;;;;;;4.80;98.70;;;;;;5066979;28;20277;-69
2022/01/31 10:22:32;;;;;;;;;;;4.80;98.70;;;;;;5064023;28;20517;-69
2022/01/31 10:25:01;;;;;;;;;;;4.80;99.00;;;;;;5067689;28;19916;-70
2022/01/31 10:27:29;;;;;;;;;;;4.80;98.80;;;;;;5064867;28;19991;-69
2022/01/31 10:29:56;;;;;;;;;;;4.80;98.80;;;;;;5062996;28;20393;-68
2022/01/31 10:32:31;;;;;;;;;;;4.90;98.80;;;;;;5060399;28;20502;-68
2022/01/31 10:34:58;;;;;;;;;;;4.80;98.80;;;;;;5069374;28;19908;-68
2022/01/31 10:37:25;;;;;;;;;;;4.80;98.80;;;;;;5070481;28;19919;-69
2022/01/31 10:51:00;;;;;;;;;;;4.90;99.00;;;;;;5070271;28;19938;-69
2022/01/31 10:53:37;;;;;;;;;;;4.90;99.00;;;;;;5057425;28;19943;-69
2022/01/31 10:56:02;;;;;;;;;;;4.90;99.00;;;;;;5060869;28;19942;-69
2022/01/31 10:58:30;;;;;;;;;;;4.90;99.00;;;;;;5059814;28;20420;-69
2022/01/31 11:01:10;;;;;;;;;;;4.90;99.00;;;;;;5069846;28;19939;-69
2022/01/31 11:03:35;;;;;;;;;;;4.90;99.00;;;;;;5066960;28;19939;-69
2022/01/31 11:06:10;;;;;;;;;;;4.90;99.00;;;;;;5059506;28;19935;-69
2022/01/31 11:08:36;;;;;;;;;;;4.90;99.00;;;;;;5064360;28;19916;-69
2022/01/31 11:11:01;;;;;;;;;;;4.90;99.00;;;;;;5067778;28;19916;-69
2022/01/31 11:13:27;;;;;;;;;;;4.90;99.00;;;;;;5067909;28;19963;-69
2022/01/31 11:15:55;;;;;;;;;;;4.90;99.00;;;;;;5063579;28;19913;-69
2022/01/31 11:18:28;;;;;;;;;;;4.90;99.00;;;;;;5063741;28;19922;-69
2022/01/31 11:20:57;;;;;;;;;;;4.90;99.30;;;;;;5061573;28;19913;-69
2022/01/31 11:23:25;;;;;;;;;;;4.90;99.00;;;;;;5055331;28;19921;-69
2022/01/31 11:25:53;;;;;;;;;;;4.90;99.00;;;;;;5063077;28;19960;-69
2022/01/31 11:28:31;;;;;;;;;;;5.00;99.10;;;;;;5075848;28;20469;-69
2022/01/31 11:30:57;;;;;;;;;;;5.00;99.00;;;;;;5061838;28;19924;-69
2022/01/31 11:33:23;;;;;;;;;;;5.00;99.00;;;;;;5067659;28;19927;-69
2022/01/31 11:35:49;;;;;;;;;;;5.00;99.00;;;;;;5046030;28;20349;-69
2022/01/31 11:38:16;;;;;;;;;;;5.00;99.00;;;;;;5077430;28;19923;-69
2022/01/31 11:40:41;;;;;;;;;;;5.00;99.10;;;;;;5058431;28;19962;-69
2022/01/31 11:43:08;;;;;;;;;;;5.00;99.10;;;;;;5068368;28;19916;-69
2022/01/31 11:45:35;;;;;;;;;;;5.00;99.00;;;;;;5060654;28;19920;-69
2022/01/31 11:48:04;;;;;;;;;;;5.00;99.10;;;;;;5059205;28;19920;-69
2022/01/31 11:50:40;;;;;;;;;;;5.00;99.10;;;;;;5044999;28;20232;-70
2022/01/31 11:53:06;;;;;;;;;;;5.00;99.10;;;;;;5067808;28;20016;-69
2022/01/31 11:55:35;;;;;;;;;;;5.00;99.10;;;;;;5052093;28;20100;-69
2022/01/31 11:58:00;;;;;;;;;;;5.00;99.10;;;;;;5063311;28;19947;-69
2022/01/31 12:00:28;;;;;;;;;;;5.00;99.10;;;;;;5053695;28;19975;-69
2022/01/31 12:02:55;;;;;;;;;;;5.00;99.10;;;;;;5060376;28;19944;-69
2022/01/31 12:05:22;;;;;;;;;;;5.00;99.10;;;;;;5066893;28;19926;-69
2022/01/31 12:07:58;;;;;;;;;;;5.10;99.20;;;;;;5046082;28;19912;-69
2022/01/31 12:10:34;;;;;;;;;;;5.00;99.10;;;;;;5061559;28;19923;-69
2022/01/31 12:13:15;;;;;;;;;;;5.10;99.20;;;;;;5060408;28;19913;-69
2022/01/31 12:23:48;;;;;;;;;;;5.10;99.20;;;;;;5059592;28;19919;-69
2022/01/31 12:26:27;;;;;;;;;;;5.10;99.20;;;;;;5062338;28;20701;-69
2022/01/31 12:28:56;;;;;;;;;;;5.10;99.20;;;;;;5057608;28;19912;-69
2022/01/31 12:31:48;;;;;;;;;;;5.10;99.20;;;;;;5065930;28;19921;-69
2022/01/31 12:34:17;;;;;;;;;;;5.10;99.30;;;;;;5040629;28;19912;-69
2022/01/31 12:36:42;;;;;;;;;;;5.10;99.30;;;;;;5066209;28;19920;-69
2022/01/31 12:39:27;;;;;;;;;;;5.10;99.20;;;;;;5062167;28;19916;-69
2022/01/31 12:41:59;;;;;;;;;;;5.10;99.30;;;;;;5058481;28;20121;-69
2022/01/31 12:44:25;;;;;;;;;;;5.10;99.20;;;;;;5061632;28;19970;-69
2022/01/31 12:46:51;;;;;;;;;;;5.10;99.20;;;;;;5069078;28;19916;-69
2022/01/31 12:49:17;;;;;;;;;;;5.10;99.20;;;;;;5061897;28;19920;-69
2022/01/31 12:52:03;;;;;;;;;;;5.10;99.30;;;;;;5056879;28;19916;-69
2022/01/31 12:54:29;;;;;;;;;;;5.20;99.30;;;;;;5061172;28;20004;-69
2022/01/31 12:56:57;;;;;;;;;;;5.20;99.40;;;;;;5069181;28;20020;-69
2022/01/31 12:59:23;;;;;;;;;;;5.20;99.40;;;;;;5041675;28;20011;-69
2022/01/31 13:01:50;;;;;;;;;;;5.20;99.30;;;;;;5062548;28;20000;-69
2022/01/31 13:04:25;;;;;;;;;;;5.20;99.30;;;;;;5060994;28;19962;-69
2022/01/31 13:06:51;;;;;;;;;;;5.20;99.30;;;;;;5041958;28;20381;-70
2022/01/31 13:09:17;;;;;;;;;;;5.20;99.40;;;;;;5061824;28;19969;-69
2022/01/31 13:12:04;;;;;;;;;;;5.20;99.40;;;;;;5046552;28;19928;-69
2022/01/31 13:14:31;;;;;;;;;;;5.20;99.30;;;;;;5065040;28;19912;-69
2022/01/31 13:19:33;;;;;;;;;;;5.20;99.40;;;;;;5059245;28;20574;-69
2022/01/31 13:22:00;;;;;;;;;;;5.30;99.40;;;;;;5064154;28;19939;-69
2022/01/31 13:24:40;;;;;;;;;;;5.20;99.30;;;;;;5069516;28;19916;-69
2022/01/31 13:27:08;;;;;;;;;;;5.30;99.30;;;;;;5062739;28;19912;-69
2022/01/31 13:29:35;;;;;;;;;;;5.20;99.30;;;;;;5059892;28;20336;-69
2022/01/31 13:32:21;;;;;;;;;;;5.30;99.40;;;;;;5061512;28;19917;-69
2022/01/31 13:34:53;;;;;;;;;;;5.20;99.40;;;;;;5044703;28;19916;-68
2022/01/31 13:37:37;;;;;;;;;;;5.30;99.40;;;;;;5069033;28;20569;-69
2022/01/31 13:40:09;;;;;;;;;;;5.30;99.40;;;;;;5072428;28;19916;-69
2022/01/31 13:42:37;;;;;;;;;;;5.20;99.30;;;;;;5050870;28;19916;-69
2022/01/31 13:45:16;;;;;;;;;;;5.30;99.40;;;;;;5046391;28;19916;-69
2022/01/31 13:47:52;;;;;;;;;;;5.30;99.50;;;;;;5066492;28;19927;-69
2022/01/31 13:50:21;;;;;;;;;;;5.30;99.50;;;;;;5071206;28;19924;-69
2022/01/31 13:52:50;;;;;;;;;;;5.20;99.50;;;;;;5065798;28;19917;-69
2022/01/31 13:55:15;;;;;;;;;;;5.30;99.50;;;;;;5068969;28;19920;-69
2022/01/31 13:57:41;;;;;;;;;;;5.30;99.60;;;;;;5064928;28;19998;-69
2022/01/31 14:00:07;;;;;;;;;;;5.30;99.60;;;;;;5051595;28;19913;-69
2022/01/31 14:02:32;;;;;;;;;;;5.30;99.50;;;;;;5046477;28;19962;-69
2022/01/31 14:04:58;;;;;;;;;;;5.30;99.60;;;;;;5075138;28;19924;-69
2022/01/31 14:07:29;;;;;;;;;;;5.30;99.60;;;;;;5065006;28;19916;-69
2022/01/31 14:09:54;;;;;;;;;;;5.30;99.60;;;;;;5051426;28;19923;-69
2022/01/31 14:12:20;;;;;;;;;;;5.30;99.50;;;;;;5049407;28;19966;-69
2022/01/31 14:14:45;;;;;;;;;;;5.20;99.50;;;;;;5062205;28;19962;-69
2022/01/31 14:17:11;;;;;;;;;;;5.30;99.50;;;;;;5045204;28;19952;-69
2022/01/31 14:19:38;;;;;;;;;;;5.30;99.60;;;;;;5046994;28;19942;-69
2022/01/31 14:22:06;;;;;;;;;;;5.30;99.60;;;;;;5067009;28;20384;-69
2022/01/31 14:24:33;;;;;;;;;;;5.30;99.60;;;;;;5062864;28;19919;-69
2022/01/31 14:27:05;;;;;;;;;;;5.30;99.60;;;;;;5060957;28;20019;-69
2022/01/31 14:29:34;;;;;;;;;;;5.30;99.60;;;;;;5064471;28;20010;-69
2022/01/31 14:31:59;;;;;;;;;;;5.30;99.70;;;;;;5072541;28;19958;-69
2022/01/31 14:34:26;;;;;;;;;;;5.30;99.60;;;;;;5048290;28;20007;-69
2022/01/31 14:37:04;;;;;;;;;;;5.30;99.60;;;;;;5052091;28;20322;-69
2022/01/31 14:39:37;;;;;;;;;;;5.30;99.60;;;;;;5065192;28;21423;-70
2022/01/31 14:42:28;;;;;;;;;;;5.30;99.60;;;;;;5064512;28;19976;-69
2022/01/31 14:47:42;;;;;;;;;;;5.30;99.70;;;;;;5062276;28;19926;-69
2022/01/31 14:50:09;;;;;;;;;;;5.30;99.60;;;;;;5063009;28;19928;-71
2022/01/31 14:52:34;;;;;;;;;;;5.30;99.70;;;;;;5058120;28;19943;-69
2022/01/31 14:55:02;;;;;;;;;;;5.30;99.60;;;;;;5064367;28;19913;-69
2022/01/31 14:57:28;;;;;;;;;;;5.30;99.60;;;;;;5073868;28;19978;-69
2022/01/31 14:59:53;;;;;;;;;;;5.30;99.70;;;;;;5044176;28;19916;-69
2022/01/31 15:02:19;;;;;;;;;;;5.30;99.70;;;;;;5064288;28;20642;-69
2022/01/31 15:04:44;;;;;;;;;;;5.30;99.70;;;;;;5063065;28;19959;-69
2022/01/31 15:07:12;;;;;;;;;;;5.30;99.70;;;;;;5070099;28;19999;-69